sensor_id;sensor_type;location;lat;lon;timestamp;P1;durP1;ratioP1;P2;durP2;ratioP2
73132;SDS011;61320;52.008;4.530;2023-05-21T00:01:03;8.84;;;8.84;;
73132;SDS011;61320;52.008;4.530;2023-05-21T00:03:31;9.19;;;9.19;;
73132;SDS011;61320;52.008;4.530;2023-05-21T00:05:58;9.14;;;9.14;;
73132;SDS011;61320;52.008;4.530;2023-05-21T00:08:25;9.60;;;9.60;;
73132;SDS011;61320;52.008;4.530;2023-05-21T00:10:51;9.67;;;9.67;;
73132;SDS011;61320;52.008;4.530;2023-05-21T00:13:17;9.75;;;9.75;;
73132;SDS011;61320;52.008;4.530;2023-05-21T00:15:42;9.55;;;9.55;;
73132;SDS011;61320;52.008;4.530;2023-05-21T00:18:08;8.95;;;8.95;;
73132;SDS011;61320;52.008;4.530;2023-05-21T00:20:33;9.01;;;9.01;;
73132;SDS011;61320;52.008;4.530;2023-05-21T00:22:59;8.26;;;8.26;;
73132;SDS011;61320;52.008;4.530;2023-05-21T00:25:29;8.33;;;8.33;;
73132;SDS011;61320;52.008;4.530;2023-05-21T00:27:55;8.18;;;8.18;;
73132;SDS011;61320;52.008;4.530;2023-05-21T00:30:20;8.13;;;8.13;;
73132;SDS011;61320;52.008;4.530;2023-05-21T00:32:49;7.93;;;7.93;;
73132;SDS011;61320;52.008;4.530;2023-05-21T00:35:14;7.51;;;7.51;;
73132;SDS011;61320;52.008;4.530;2023-05-21T00:37:40;7.57;;;7.57;;
73132;SDS011;61320;52.008;4.530;2023-05-21T00:40:06;8.08;;;8.08;;
73132;SDS011;61320;52.008;4.530;2023-05-21T00:42:33;7.34;;;7.34;;
73132;SDS011;61320;52.008;4.530;2023-05-21T00:45:03;7.53;;;7.53;;
73132;SDS011;61320;52.008;4.530;2023-05-21T00:47:30;7.93;;;7.93;;
73132;SDS011;61320;52.008;4.530;2023-05-21T00:49:55;7.81;;;7.81;;
73132;SDS011;61320;52.008;4.530;2023-05-21T00:52:21;10.89;;;10.89;;
73132;SDS011;61320;52.008;4.530;2023-05-21T00:54:49;12.08;;;12.08;;
73132;SDS011;61320;52.008;4.530;2023-05-21T00:57:17;9.62;;;9.62;;
73132;SDS011;61320;52.008;4.530;2023-05-21T00:59:47;10.02;;;10.02;;
73132;SDS011;61320;52.008;4.530;2023-05-21T01:02:15;9.22;;;9.22;;
73132;SDS011;61320;52.008;4.530;2023-05-21T01:04:45;8.34;;;8.34;;
73132;SDS011;61320;52.008;4.530;2023-05-21T01:07:11;8.73;;;8.73;;
73132;SDS011;61320;52.008;4.530;2023-05-21T01:09:40;18.14;;;18.05;;
73132;SDS011;61320;52.008;4.530;2023-05-21T01:12:07;13.17;;;12.99;;
73132;SDS011;61320;52.008;4.530;2023-05-21T01:14:35;9.85;;;9.85;;
73132;SDS011;61320;52.008;4.530;2023-05-21T01:17:02;8.43;;;8.43;;
73132;SDS011;61320;52.008;4.530;2023-05-21T01:19:30;9.28;;;9.28;;
73132;SDS011;61320;52.008;4.530;2023-05-21T01:22:00;10.38;;;10.38;;
73132;SDS011;61320;52.008;4.530;2023-05-21T01:24:29;10.28;;;10.28;;
73132;SDS011;61320;52.008;4.530;2023-05-21T01:26:55;12.15;;;12.14;;
73132;SDS011;61320;52.008;4.530;2023-05-21T01:29:22;12.81;;;12.81;;
73132;SDS011;61320;52.008;4.530;2023-05-21T01:34:37;16.50;;;16.44;;
73132;SDS011;61320;52.008;4.530;2023-05-21T01:37:13;11.12;;;11.12;;
73132;SDS011;61320;52.008;4.530;2023-05-21T01:39:53;9.87;;;9.87;;
73132;SDS011;61320;52.008;4.530;2023-05-21T01:42:23;10.97;;;10.97;;
73132;SDS011;61320;52.008;4.530;2023-05-21T01:44:54;9.69;;;9.69;;
73132;SDS011;61320;52.008;4.530;2023-05-21T01:47:22;10.05;;;10.05;;
73132;SDS011;61320;52.008;4.530;2023-05-21T01:49:49;8.59;;;8.59;;
73132;SDS011;61320;52.008;4.530;2023-05-21T01:52:16;8.79;;;8.79;;
73132;SDS011;61320;52.008;4.530;2023-05-21T01:54:41;8.53;;;8.53;;
73132;SDS011;61320;52.008;4.530;2023-05-21T01:57:07;7.84;;;7.84;;
73132;SDS011;61320;52.008;4.530;2023-05-21T01:59:32;7.83;;;7.83;;
73132;SDS011;61320;52.008;4.530;2023-05-21T02:01:59;7.64;;;7.64;;
73132;SDS011;61320;52.008;4.530;2023-05-21T02:04:24;7.69;;;7.69;;
73132;SDS011;61320;52.008;4.530;2023-05-21T02:06:50;7.18;;;7.18;;
73132;SDS011;61320;52.008;4.530;2023-05-21T02:09:16;7.62;;;7.62;;
73132;SDS011;61320;52.008;4.530;2023-05-21T02:11:41;8.04;;;8.04;;
73132;SDS011;61320;52.008;4.530;2023-05-21T02:14:07;8.82;;;8.82;;
73132;SDS011;61320;52.008;4.530;2023-05-21T02:16:34;8.10;;;8.10;;
73132;SDS011;61320;52.008;4.530;2023-05-21T02:19:00;7.25;;;7.25;;
73132;SDS011;61320;52.008;4.530;2023-05-21T02:21:25;11.85;;;11.85;;
73132;SDS011;61320;52.008;4.530;2023-05-21T02:23:51;9.49;;;9.49;;
73132;SDS011;61320;52.008;4.530;2023-05-21T02:26:17;8.04;;;8.04;;
73132;SDS011;61320;52.008;4.530;2023-05-21T02:28:42;7.97;;;7.97;;
73132;SDS011;61320;52.008;4.530;2023-05-21T02:31:08;7.64;;;7.64;;
73132;SDS011;61320;52.008;4.530;2023-05-21T02:33:34;7.83;;;7.83;;
73132;SDS011;61320;52.008;4.530;2023-05-21T02:35:59;7.99;;;7.99;;
73132;SDS011;61320;52.008;4.530;2023-05-21T02:38:25;8.78;;;8.78;;
73132;SDS011;61320;52.008;4.530;2023-05-21T02:40:50;7.82;;;7.82;;
73132;SDS011;61320;52.008;4.530;2023-05-21T02:43:16;7.78;;;7.78;;
73132;SDS011;61320;52.008;4.530;2023-05-21T02:45:41;8.25;;;8.25;;
73132;SDS011;61320;52.008;4.530;2023-05-21T02:48:07;7.96;;;7.96;;
73132;SDS011;61320;52.008;4.530;2023-05-21T02:50:32;9.44;;;9.44;;
73132;SDS011;61320;52.008;4.530;2023-05-21T02:52:58;10.87;;;10.87;;
73132;SDS011;61320;52.008;4.530;2023-05-21T02:55:24;8.74;;;8.74;;
73132;SDS011;61320;52.008;4.530;2023-05-21T02:57:49;8.30;;;8.30;;
73132;SDS011;61320;52.008;4.530;2023-05-21T03:00:15;8.14;;;8.14;;
73132;SDS011;61320;52.008;4.530;2023-05-21T03:02:41;8.05;;;8.05;;
73132;SDS011;61320;52.008;4.530;2023-05-21T03:05:07;7.99;;;7.99;;
73132;SDS011;61320;52.008;4.530;2023-05-21T03:07:33;8.53;;;8.53;;
73132;SDS011;61320;52.008;4.530;2023-05-21T03:09:59;8.35;;;8.35;;
73132;SDS011;61320;52.008;4.530;2023-05-21T03:12:24;8.31;;;8.31;;
73132;SDS011;61320;52.008;4.530;2023-05-21T03:14:50;8.51;;;8.51;;
73132;SDS011;61320;52.008;4.530;2023-05-21T03:17:15;8.27;;;8.27;;
73132;SDS011;61320;52.008;4.530;2023-05-21T03:19:42;8.35;;;8.35;;
73132;SDS011;61320;52.008;4.530;2023-05-21T03:22:08;8.24;;;8.24;;
73132;SDS011;61320;52.008;4.530;2023-05-21T03:24:34;8.69;;;8.69;;
73132;SDS011;61320;52.008;4.530;2023-05-21T03:27:00;8.15;;;8.15;;
73132;SDS011;61320;52.008;4.530;2023-05-21T03:29:26;8.47;;;8.47;;
73132;SDS011;61320;52.008;4.530;2023-05-21T03:31:53;8.36;;;8.36;;
73132;SDS011;61320;52.008;4.530;2023-05-21T03:34:19;9.01;;;9.01;;
73132;SDS011;61320;52.008;4.530;2023-05-21T03:36:45;9.09;;;9.09;;
73132;SDS011;61320;52.008;4.530;2023-05-21T03:39:11;8.71;;;8.71;;
73132;SDS011;61320;52.008;4.530;2023-05-21T03:41:37;8.86;;;8.86;;
73132;SDS011;61320;52.008;4.530;2023-05-21T03:44:02;9.19;;;9.19;;
73132;SDS011;61320;52.008;4.530;2023-05-21T03:46:28;9.22;;;9.22;;
73132;SDS011;61320;52.008;4.530;2023-05-21T03:48:53;8.64;;;8.64;;
73132;SDS011;61320;52.008;4.530;2023-05-21T03:51:19;9.13;;;9.13;;
73132;SDS011;61320;52.008;4.530;2023-05-21T03:53:44;9.06;;;9.06;;
73132;SDS011;61320;52.008;4.530;2023-05-21T03:56:10;8.90;;;8.90;;
73132;SDS011;61320;52.008;4.530;2023-05-21T03:58:36;9.11;;;9.11;;
73132;SDS011;61320;52.008;4.530;2023-05-21T04:01:02;8.98;;;8.98;;
73132;SDS011;61320;52.008;4.530;2023-05-21T04:03:29;8.85;;;8.85;;
73132;SDS011;61320;52.008;4.530;2023-05-21T04:05:56;9.01;;;9.01;;
73132;SDS011;61320;52.008;4.530;2023-05-21T04:08:21;9.50;;;9.50;;
73132;SDS011;61320;52.008;4.530;2023-05-21T04:10:47;9.51;;;9.51;;
73132;SDS011;61320;52.008;4.530;2023-05-21T04:13:12;9.72;;;9.72;;
73132;SDS011;61320;52.008;4.530;2023-05-21T04:15:38;9.86;;;9.86;;
73132;SDS011;61320;52.008;4.530;2023-05-21T04:18:03;9.88;;;9.88;;
73132;SDS011;61320;52.008;4.530;2023-05-21T04:20:29;9.63;;;9.63;;
73132;SDS011;61320;52.008;4.530;2023-05-21T04:22:54;10.20;;;10.20;;
73132;SDS011;61320;52.008;4.530;2023-05-21T04:25:20;10.50;;;10.50;;
73132;SDS011;61320;52.008;4.530;2023-05-21T04:27:47;10.90;;;10.90;;
73132;SDS011;61320;52.008;4.530;2023-05-21T04:30:14;11.84;;;11.84;;
73132;SDS011;61320;52.008;4.530;2023-05-21T04:32:39;11.94;;;11.94;;
73132;SDS011;61320;52.008;4.530;2023-05-21T04:35:05;11.84;;;11.84;;
73132;SDS011;61320;52.008;4.530;2023-05-21T04:37:30;11.10;;;11.10;;
73132;SDS011;61320;52.008;4.530;2023-05-21T04:39:59;10.14;;;10.14;;
73132;SDS011;61320;52.008;4.530;2023-05-21T04:42:25;9.96;;;9.96;;
73132;SDS011;61320;52.008;4.530;2023-05-21T04:44:51;9.79;;;9.79;;
73132;SDS011;61320;52.008;4.530;2023-05-21T04:47:19;9.51;;;9.51;;
73132;SDS011;61320;52.008;4.530;2023-05-21T04:49:45;10.09;;;10.09;;
73132;SDS011;61320;52.008;4.530;2023-05-21T04:52:14;9.88;;;9.88;;
73132;SDS011;61320;52.008;4.530;2023-05-21T04:54:40;9.28;;;9.28;;
73132;SDS011;61320;52.008;4.530;2023-05-21T04:57:06;8.95;;;8.95;;
73132;SDS011;61320;52.008;4.530;2023-05-21T04:59:33;9.06;;;9.06;;
73132;SDS011;61320;52.008;4.530;2023-05-21T05:01:59;9.31;;;9.31;;
73132;SDS011;61320;52.008;4.530;2023-05-21T05:04:25;9.23;;;9.23;;
73132;SDS011;61320;52.008;4.530;2023-05-21T05:06:50;8.71;;;8.71;;
73132;SDS011;61320;52.008;4.530;2023-05-21T05:09:16;9.28;;;9.28;;
73132;SDS011;61320;52.008;4.530;2023-05-21T05:11:43;9.36;;;9.36;;
73132;SDS011;61320;52.008;4.530;2023-05-21T05:14:08;9.32;;;9.32;;
73132;SDS011;61320;52.008;4.530;2023-05-21T05:16:34;9.38;;;9.38;;
73132;SDS011;61320;52.008;4.530;2023-05-21T05:19:00;9.53;;;9.53;;
73132;SDS011;61320;52.008;4.530;2023-05-21T05:21:26;8.97;;;8.97;;
73132;SDS011;61320;52.008;4.530;2023-05-21T05:23:51;9.65;;;9.65;;
73132;SDS011;61320;52.008;4.530;2023-05-21T05:26:17;9.93;;;9.93;;
73132;SDS011;61320;52.008;4.530;2023-05-21T05:28:43;9.61;;;9.61;;
73132;SDS011;61320;52.008;4.530;2023-05-21T05:31:09;9.42;;;9.42;;
73132;SDS011;61320;52.008;4.530;2023-05-21T05:33:35;9.15;;;9.15;;
73132;SDS011;61320;52.008;4.530;2023-05-21T05:36:00;9.98;;;9.98;;
73132;SDS011;61320;52.008;4.530;2023-05-21T05:38:26;9.49;;;9.49;;
73132;SDS011;61320;52.008;4.530;2023-05-21T05:40:51;9.78;;;9.78;;
73132;SDS011;61320;52.008;4.530;2023-05-21T05:43:16;9.34;;;9.34;;
73132;SDS011;61320;52.008;4.530;2023-05-21T05:45:42;9.69;;;9.69;;
73132;SDS011;61320;52.008;4.530;2023-05-21T05:48:07;10.26;;;10.26;;
73132;SDS011;61320;52.008;4.530;2023-05-21T05:50:33;9.78;;;9.78;;
73132;SDS011;61320;52.008;4.530;2023-05-21T05:52:58;10.08;;;10.08;;
73132;SDS011;61320;52.008;4.530;2023-05-21T05:55:24;10.27;;;10.27;;
73132;SDS011;61320;52.008;4.530;2023-05-21T05:57:50;10.61;;;10.61;;
73132;SDS011;61320;52.008;4.530;2023-05-21T06:00:16;10.26;;;10.26;;
73132;SDS011;61320;52.008;4.530;2023-05-21T06:02:42;10.22;;;10.22;;
73132;SDS011;61320;52.008;4.530;2023-05-21T06:05:08;10.16;;;10.16;;
73132;SDS011;61320;52.008;4.530;2023-05-21T06:07:35;10.29;;;10.29;;
73132;SDS011;61320;52.008;4.530;2023-05-21T06:10:03;10.53;;;10.53;;
73132;SDS011;61320;52.008;4.530;2023-05-21T06:12:30;10.47;;;10.47;;
73132;SDS011;61320;52.008;4.530;2023-05-21T06:14:55;10.41;;;10.41;;
73132;SDS011;61320;52.008;4.530;2023-05-21T06:17:20;10.43;;;10.43;;
73132;SDS011;61320;52.008;4.530;2023-05-21T06:19:46;10.60;;;10.60;;
73132;SDS011;61320;52.008;4.530;2023-05-21T06:22:11;10.66;;;10.66;;
73132;SDS011;61320;52.008;4.530;2023-05-21T06:24:37;10.42;;;10.42;;
73132;SDS011;61320;52.008;4.530;2023-05-21T06:27:02;10.14;;;10.14;;
73132;SDS011;61320;52.008;4.530;2023-05-21T06:29:28;10.41;;;10.41;;
73132;SDS011;61320;52.008;4.530;2023-05-21T06:31:54;12.73;;;12.73;;
73132;SDS011;61320;52.008;4.530;2023-05-21T06:34:19;13.93;;;13.93;;
73132;SDS011;61320;52.008;4.530;2023-05-21T06:36:44;17.49;;;17.49;;
73132;SDS011;61320;52.008;4.530;2023-05-21T06:39:10;26.96;;;26.96;;
73132;SDS011;61320;52.008;4.530;2023-05-21T06:41:36;61.30;;;61.30;;
73132;SDS011;61320;52.008;4.530;2023-05-21T06:44:01;32.81;;;30.77;;
73132;SDS011;61320;52.008;4.530;2023-05-21T06:46:27;28.73;;;24.93;;
73132;SDS011;61320;52.008;4.530;2023-05-21T06:48:52;15.24;;;13.77;;
73132;SDS011;61320;52.008;4.530;2023-05-21T06:51:17;10.62;;;10.62;;
73132;SDS011;61320;52.008;4.530;2023-05-21T06:53:43;10.70;;;10.70;;
73132;SDS011;61320;52.008;4.530;2023-05-21T06:56:08;10.62;;;10.62;;
73132;SDS011;61320;52.008;4.530;2023-05-21T06:58:34;10.93;;;10.93;;
73132;SDS011;61320;52.008;4.530;2023-05-21T07:00:59;10.50;;;10.50;;
73132;SDS011;61320;52.008;4.530;2023-05-21T07:03:25;10.09;;;10.09;;
73132;SDS011;61320;52.008;4.530;2023-05-21T07:05:52;8.81;;;8.81;;
73132;SDS011;61320;52.008;4.530;2023-05-21T07:08:17;9.53;;;9.53;;
73132;SDS011;61320;52.008;4.530;2023-05-21T07:10:44;9.02;;;9.02;;
73132;SDS011;61320;52.008;4.530;2023-05-21T07:13:10;8.43;;;8.43;;
73132;SDS011;61320;52.008;4.530;2023-05-21T07:15:36;8.48;;;8.48;;
73132;SDS011;61320;52.008;4.530;2023-05-21T07:18:01;8.67;;;8.67;;
73132;SDS011;61320;52.008;4.530;2023-05-21T07:20:27;8.98;;;8.98;;
73132;SDS011;61320;52.008;4.530;2023-05-21T07:22:53;8.76;;;8.76;;
73132;SDS011;61320;52.008;4.530;2023-05-21T07:25:18;8.79;;;8.79;;
73132;SDS011;61320;52.008;4.530;2023-05-21T07:27:44;8.57;;;8.57;;
73132;SDS011;61320;52.008;4.530;2023-05-21T07:30:09;8.96;;;8.96;;
73132;SDS011;61320;52.008;4.530;2023-05-21T07:32:35;8.82;;;8.82;;
73132;SDS011;61320;52.008;4.530;2023-05-21T07:35:01;8.85;;;8.85;;
73132;SDS011;61320;52.008;4.530;2023-05-21T07:37:26;8.90;;;8.90;;
73132;SDS011;61320;52.008;4.530;2023-05-21T07:39:53;8.50;;;8.50;;
73132;SDS011;61320;52.008;4.530;2023-05-21T07:42:20;8.58;;;8.58;;
73132;SDS011;61320;52.008;4.530;2023-05-21T07:44:45;8.94;;;8.94;;
73132;SDS011;61320;52.008;4.530;2023-05-21T07:47:10;8.42;;;8.42;;
73132;SDS011;61320;52.008;4.530;2023-05-21T07:49:36;8.97;;;8.97;;
73132;SDS011;61320;52.008;4.530;2023-05-21T07:52:01;8.70;;;8.70;;
73132;SDS011;61320;52.008;4.530;2023-05-21T07:54:27;8.69;;;8.69;;
73132;SDS011;61320;52.008;4.530;2023-05-21T07:56:52;8.67;;;8.67;;
73132;SDS011;61320;52.008;4.530;2023-05-21T07:59:18;8.83;;;8.83;;
73132;SDS011;61320;52.008;4.530;2023-05-21T08:01:43;8.74;;;8.74;;
73132;SDS011;61320;52.008;4.530;2023-05-21T08:04:09;8.89;;;8.89;;
73132;SDS011;61320;52.008;4.530;2023-05-21T08:06:34;9.04;;;9.04;;
73132;SDS011;61320;52.008;4.530;2023-05-21T08:09:04;8.64;;;8.64;;
73132;SDS011;61320;52.008;4.530;2023-05-21T08:11:30;8.95;;;8.95;;
73132;SDS011;61320;52.008;4.530;2023-05-21T08:13:55;9.43;;;9.43;;
73132;SDS011;61320;52.008;4.530;2023-05-21T08:16:21;8.75;;;8.75;;
73132;SDS011;61320;52.008;4.530;2023-05-21T08:18:47;8.82;;;8.82;;
73132;SDS011;61320;52.008;4.530;2023-05-21T08:21:13;8.81;;;8.81;;
73132;SDS011;61320;52.008;4.530;2023-05-21T08:23:39;8.74;;;8.74;;
73132;SDS011;61320;52.008;4.530;2023-05-21T08:26:05;9.22;;;9.22;;
73132;SDS011;61320;52.008;4.530;2023-05-21T08:28:31;9.20;;;9.20;;
73132;SDS011;61320;52.008;4.530;2023-05-21T08:30:56;8.95;;;8.95;;
73132;SDS011;61320;52.008;4.530;2023-05-21T08:33:22;8.70;;;8.70;;
73132;SDS011;61320;52.008;4.530;2023-05-21T08:35:47;8.54;;;8.54;;
73132;SDS011;61320;52.008;4.530;2023-05-21T08:38:13;8.58;;;8.58;;
73132;SDS011;61320;52.008;4.530;2023-05-21T08:40:41;8.35;;;8.35;;
73132;SDS011;61320;52.008;4.530;2023-05-21T08:43:06;8.35;;;8.35;;
73132;SDS011;61320;52.008;4.530;2023-05-21T08:45:37;8.41;;;8.41;;
73132;SDS011;61320;52.008;4.530;2023-05-21T08:48:07;8.33;;;8.33;;
73132;SDS011;61320;52.008;4.530;2023-05-21T08:50:38;8.50;;;8.50;;
73132;SDS011;61320;52.008;4.530;2023-05-21T08:53:05;8.26;;;8.26;;
73132;SDS011;61320;52.008;4.530;2023-05-21T08:55:31;8.23;;;8.23;;
73132;SDS011;61320;52.008;4.530;2023-05-21T08:57:56;8.19;;;8.19;;
73132;SDS011;61320;52.008;4.530;2023-05-21T09:00:22;8.28;;;8.28;;
73132;SDS011;61320;52.008;4.530;2023-05-21T09:02:48;8.29;;;8.29;;
73132;SDS011;61320;52.008;4.530;2023-05-21T09:05:15;8.20;;;8.20;;
73132;SDS011;61320;52.008;4.530;2023-05-21T09:07:42;8.40;;;8.40;;
73132;SDS011;61320;52.008;4.530;2023-05-21T09:10:12;8.31;;;8.31;;
73132;SDS011;61320;52.008;4.530;2023-05-21T09:12:40;8.10;;;8.10;;
73132;SDS011;61320;52.008;4.530;2023-05-21T09:15:06;7.80;;;7.80;;
73132;SDS011;61320;52.008;4.530;2023-05-21T09:17:32;7.52;;;7.52;;
73132;SDS011;61320;52.008;4.530;2023-05-21T09:22:43;7.72;;;7.72;;
73132;SDS011;61320;52.008;4.530;2023-05-21T09:25:17;7.67;;;7.67;;
73132;SDS011;61320;52.008;4.530;2023-05-21T09:27:45;7.41;;;7.41;;
73132;SDS011;61320;52.008;4.530;2023-05-21T09:30:12;7.95;;;7.95;;
73132;SDS011;61320;52.008;4.530;2023-05-21T09:32:39;7.86;;;7.86;;
73132;SDS011;61320;52.008;4.530;2023-05-21T09:37:41;7.45;;;7.45;;
73132;SDS011;61320;52.008;4.530;2023-05-21T09:40:15;7.46;;;7.46;;
73132;SDS011;61320;52.008;4.530;2023-05-21T09:42:52;8.13;;;8.13;;
73132;SDS011;61320;52.008;4.530;2023-05-21T09:47:45;7.41;;;7.41;;
73132;SDS011;61320;52.008;4.530;2023-05-21T09:50:12;6.93;;;6.93;;
73132;SDS011;61320;52.008;4.530;2023-05-21T09:52:49;7.69;;;7.69;;
73132;SDS011;61320;52.008;4.530;2023-05-21T09:55:17;7.16;;;7.16;;
73132;SDS011;61320;52.008;4.530;2023-05-21T09:57:44;7.58;;;7.58;;
73132;SDS011;61320;52.008;4.530;2023-05-21T10:00:18;7.27;;;7.27;;
73132;SDS011;61320;52.008;4.530;2023-05-21T10:02:45;7.52;;;7.52;;
73132;SDS011;61320;52.008;4.530;2023-05-21T10:05:13;7.26;;;7.26;;
73132;SDS011;61320;52.008;4.530;2023-05-21T10:07:40;7.47;;;7.47;;
73132;SDS011;61320;52.008;4.530;2023-05-21T10:10:10;7.14;;;7.14;;
73132;SDS011;61320;52.008;4.530;2023-05-21T10:12:39;7.47;;;7.47;;
73132;SDS011;61320;52.008;4.530;2023-05-21T10:15:08;7.45;;;7.45;;
73132;SDS011;61320;52.008;4.530;2023-05-21T10:17:40;7.48;;;7.48;;
73132;SDS011;61320;52.008;4.530;2023-05-21T10:20:07;7.11;;;7.11;;
73132;SDS011;61320;52.008;4.530;2023-05-21T10:22:36;6.78;;;6.78;;
73132;SDS011;61320;52.008;4.530;2023-05-21T10:25:02;7.56;;;7.56;;
73132;SDS011;61320;52.008;4.530;2023-05-21T10:27:29;7.41;;;7.41;;
73132;SDS011;61320;52.008;4.530;2023-05-21T10:29:58;7.60;;;7.60;;
73132;SDS011;61320;52.008;4.530;2023-05-21T10:32:24;7.41;;;7.41;;
73132;SDS011;61320;52.008;4.530;2023-05-21T10:34:54;7.41;;;7.41;;
73132;SDS011;61320;52.008;4.530;2023-05-21T10:37:25;7.24;;;7.24;;
73132;SDS011;61320;52.008;4.530;2023-05-21T10:39:51;7.21;;;7.21;;
73132;SDS011;61320;52.008;4.530;2023-05-21T10:53:36;8.42;;;8.42;;
73132;SDS011;61320;52.008;4.530;2023-05-21T10:56:16;7.07;;;7.07;;
73132;SDS011;61320;52.008;4.530;2023-05-21T10:59:02;7.34;;;7.34;;
73132;SDS011;61320;52.008;4.530;2023-05-21T11:01:37;7.13;;;7.13;;
73132;SDS011;61320;52.008;4.530;2023-05-21T11:04:05;6.90;;;6.90;;
73132;SDS011;61320;52.008;4.530;2023-05-21T11:06:31;6.99;;;6.99;;
73132;SDS011;61320;52.008;4.530;2023-05-21T11:09:15;6.90;;;6.90;;
73132;SDS011;61320;52.008;4.530;2023-05-21T11:16:55;6.80;;;6.80;;
73132;SDS011;61320;52.008;4.530;2023-05-21T11:19:30;7.31;;;7.31;;
73132;SDS011;61320;52.008;4.530;2023-05-21T11:22:24;7.36;;;7.36;;
73132;SDS011;61320;52.008;4.530;2023-05-21T11:24:51;7.36;;;7.36;;
73132;SDS011;61320;52.008;4.530;2023-05-21T11:27:31;8.92;;;8.92;;
73132;SDS011;61320;52.008;4.530;2023-05-21T11:29:57;20.78;;;20.78;;
73132;SDS011;61320;52.008;4.530;2023-05-21T11:32:25;8.05;;;8.05;;
73132;SDS011;61320;52.008;4.530;2023-05-21T11:34:50;7.02;;;7.02;;
73132;SDS011;61320;52.008;4.530;2023-05-21T11:39:47;7.71;;;7.71;;
73132;SDS011;61320;52.008;4.530;2023-05-21T11:42:26;7.81;;;7.81;;
73132;SDS011;61320;52.008;4.530;2023-05-21T11:44:56;7.60;;;7.60;;
73132;SDS011;61320;52.008;4.530;2023-05-21T11:47:25;7.82;;;7.82;;
73132;SDS011;61320;52.008;4.530;2023-05-21T11:49:53;7.60;;;7.60;;
73132;SDS011;61320;52.008;4.530;2023-05-21T11:52:20;8.06;;;8.06;;
73132;SDS011;61320;52.008;4.530;2023-05-21T11:54:46;8.37;;;8.37;;
73132;SDS011;61320;52.008;4.530;2023-05-21T11:57:16;9.00;;;9.00;;
73132;SDS011;61320;52.008;4.530;2023-05-21T11:59:43;9.00;;;9.00;;
73132;SDS011;61320;52.008;4.530;2023-05-21T12:02:13;8.36;;;8.36;;
73132;SDS011;61320;52.008;4.530;2023-05-21T12:04:43;9.19;;;9.19;;
73132;SDS011;61320;52.008;4.530;2023-05-21T12:07:10;9.09;;;9.09;;
73132;SDS011;61320;52.008;4.530;2023-05-21T12:09:40;9.35;;;9.35;;
73132;SDS011;61320;52.008;4.530;2023-05-21T12:12:12;8.97;;;8.97;;
73132;SDS011;61320;52.008;4.530;2023-05-21T12:14:42;8.81;;;8.81;;
73132;SDS011;61320;52.008;4.530;2023-05-21T12:17:09;9.44;;;9.44;;
73132;SDS011;61320;52.008;4.530;2023-05-21T12:19:37;8.41;;;8.41;;
73132;SDS011;61320;52.008;4.530;2023-05-21T12:22:03;8.93;;;8.93;;
73132;SDS011;61320;52.008;4.530;2023-05-21T12:24:30;8.92;;;8.92;;
73132;SDS011;61320;52.008;4.530;2023-05-21T12:26:57;9.20;;;9.20;;
73132;SDS011;61320;52.008;4.530;2023-05-21T12:29:26;9.48;;;9.48;;
73132;SDS011;61320;52.008;4.530;2023-05-21T12:31:59;9.79;;;9.79;;
73132;SDS011;61320;52.008;4.530;2023-05-21T12:34:38;9.70;;;9.70;;
73132;SDS011;61320;52.008;4.530;2023-05-21T12:37:04;9.57;;;9.57;;
73132;SDS011;61320;52.008;4.530;2023-05-21T12:39:38;10.00;;;10.00;;
73132;SDS011;61320;52.008;4.530;2023-05-21T12:42:08;9.93;;;9.93;;
73132;SDS011;61320;52.008;4.530;2023-05-21T12:44:34;10.22;;;10.22;;
73132;SDS011;61320;52.008;4.530;2023-05-21T12:46:59;10.21;;;10.21;;
73132;SDS011;61320;52.008;4.530;2023-05-21T12:49:45;10.33;;;10.33;;
73132;SDS011;61320;52.008;4.530;2023-05-21T12:52:13;9.74;;;9.74;;
73132;SDS011;61320;52.008;4.530;2023-05-21T12:54:43;10.41;;;10.41;;
73132;SDS011;61320;52.008;4.530;2023-05-21T12:57:14;10.39;;;10.39;;
73132;SDS011;61320;52.008;4.530;2023-05-21T12:59:47;10.11;;;10.11;;
73132;SDS011;61320;52.008;4.530;2023-05-21T13:02:15;10.31;;;10.31;;
73132;SDS011;61320;52.008;4.530;2023-05-21T13:04:52;10.49;;;10.49;;
73132;SDS011;61320;52.008;4.530;2023-05-21T13:07:22;9.97;;;9.97;;
73132;SDS011;61320;52.008;4.530;2023-05-21T13:09:48;9.83;;;9.83;;
73132;SDS011;61320;52.008;4.530;2023-05-21T13:12:16;10.04;;;10.04;;
73132;SDS011;61320;52.008;4.530;2023-05-21T13:14:42;9.28;;;9.28;;
73132;SDS011;61320;52.008;4.530;2023-05-21T13:17:08;9.90;;;9.90;;
73132;SDS011;61320;52.008;4.530;2023-05-21T13:19:33;10.81;;;10.81;;
73132;SDS011;61320;52.008;4.530;2023-05-21T13:21:59;10.33;;;10.33;;
73132;SDS011;61320;52.008;4.530;2023-05-21T13:24:24;10.15;;;10.15;;
73132;SDS011;61320;52.008;4.530;2023-05-21T13:26:50;10.17;;;10.17;;
73132;SDS011;61320;52.008;4.530;2023-05-21T13:29:15;9.85;;;9.85;;
73132;SDS011;61320;52.008;4.530;2023-05-21T13:31:41;10.24;;;10.24;;
73132;SDS011;61320;52.008;4.530;2023-05-21T13:34:07;9.08;;;9.08;;
73132;SDS011;61320;52.008;4.530;2023-05-21T13:36:34;10.01;;;10.01;;
73132;SDS011;61320;52.008;4.530;2023-05-21T13:38:59;10.46;;;10.46;;
73132;SDS011;61320;52.008;4.530;2023-05-21T13:41:25;10.51;;;10.51;;
73132;SDS011;61320;52.008;4.530;2023-05-21T13:43:50;11.15;;;11.15;;
73132;SDS011;61320;52.008;4.530;2023-05-21T13:46:16;11.01;;;11.01;;
73132;SDS011;61320;52.008;4.530;2023-05-21T13:48:41;10.58;;;10.58;;
73132;SDS011;61320;52.008;4.530;2023-05-21T13:51:07;10.62;;;10.62;;
73132;SDS011;61320;52.008;4.530;2023-05-21T13:53:33;10.19;;;10.19;;
73132;SDS011;61320;52.008;4.530;2023-05-21T13:55:58;9.82;;;9.82;;
73132;SDS011;61320;52.008;4.530;2023-05-21T13:58:24;9.94;;;9.94;;
73132;SDS011;61320;52.008;4.530;2023-05-21T14:00:51;9.39;;;9.39;;
73132;SDS011;61320;52.008;4.530;2023-05-21T14:03:17;10.18;;;10.18;;
73132;SDS011;61320;52.008;4.530;2023-05-21T14:05:43;9.89;;;9.89;;
73132;SDS011;61320;52.008;4.530;2023-05-21T14:08:08;9.99;;;9.99;;
73132;SDS011;61320;52.008;4.530;2023-05-21T14:10:34;10.43;;;10.43;;
73132;SDS011;61320;52.008;4.530;2023-05-21T14:12:59;10.15;;;10.15;;
73132;SDS011;61320;52.008;4.530;2023-05-21T14:15:25;9.97;;;9.97;;
73132;SDS011;61320;52.008;4.530;2023-05-21T14:17:51;10.34;;;10.34;;
73132;SDS011;61320;52.008;4.530;2023-05-21T14:20:17;10.40;;;10.40;;
73132;SDS011;61320;52.008;4.530;2023-05-21T14:22:43;11.13;;;11.13;;
73132;SDS011;61320;52.008;4.530;2023-05-21T14:25:09;10.83;;;10.83;;
73132;SDS011;61320;52.008;4.530;2023-05-21T14:27:35;10.38;;;10.38;;
73132;SDS011;61320;52.008;4.530;2023-05-21T14:30:02;10.50;;;10.50;;
73132;SDS011;61320;52.008;4.530;2023-05-21T14:32:28;11.45;;;11.45;;
73132;SDS011;61320;52.008;4.530;2023-05-21T14:34:54;10.44;;;10.44;;
73132;SDS011;61320;52.008;4.530;2023-05-21T14:37:20;10.00;;;10.00;;
73132;SDS011;61320;52.008;4.530;2023-05-21T14:39:46;10.44;;;10.44;;
73132;SDS011;61320;52.008;4.530;2023-05-21T14:42:11;10.22;;;10.22;;
73132;SDS011;61320;52.008;4.530;2023-05-21T14:44:37;10.43;;;10.43;;
73132;SDS011;61320;52.008;4.530;2023-05-21T14:47:02;10.45;;;10.45;;
73132;SDS011;61320;52.008;4.530;2023-05-21T14:49:28;10.24;;;10.24;;
73132;SDS011;61320;52.008;4.530;2023-05-21T14:51:53;10.48;;;10.48;;
73132;SDS011;61320;52.008;4.530;2023-05-21T14:54:19;10.73;;;10.73;;
73132;SDS011;61320;52.008;4.530;2023-05-21T14:56:44;10.33;;;10.33;;
73132;SDS011;61320;52.008;4.530;2023-05-21T14:59:09;10.18;;;10.18;;
73132;SDS011;61320;52.008;4.530;2023-05-21T15:01:36;10.16;;;10.16;;
73132;SDS011;61320;52.008;4.530;2023-05-21T15:04:03;10.06;;;10.06;;
73132;SDS011;61320;52.008;4.530;2023-05-21T15:06:28;10.22;;;10.22;;
73132;SDS011;61320;52.008;4.530;2023-05-21T15:08:54;9.78;;;9.78;;